NRT weather

Narita International Airport
Tokyo, Chiba Prefecture, Japan

Public forecast

Using degrees Celsius for public forecast. Weather courtesy of forecast.io.

METAR (pilot weather report)

Retrieved 2017/04/27 01:00 UTC (10 minutes ago):

RJAA 270100Z 03009KT 360V060 9999 FEW015 BKN070 13/09 Q1005 NOSIG

TAF (pilot weather forecast)

Forecast is more than 12 hours old.

Retrieved 2017/04/26 00:00 UTC (1 day ago):

TAF RJAA 262307Z 2700/2806 04010KT 9999 FEW015 SCT040 BECMG 2704/2706 12007KT BECMG 2718/2721 34004KT BECMG 2803/2806 14010KT